sensor_id;sensor_type;location;lat;lon;timestamp;P1;durP1;ratioP1;P2;durP2;ratioP2
11731;SDS011;5922;53.734;10.258;2022-09-17T00:00:08;19.27;;;4.00;;
11731;SDS011;5922;53.734;10.258;2022-09-17T00:02:36;15.83;;;4.50;;
11731;SDS011;5922;53.734;10.258;2022-09-17T00:05:04;16.63;;;3.60;;
11731;SDS011;5922;53.734;10.258;2022-09-17T00:07:31;13.60;;;3.57;;
11731;SDS011;5922;53.734;10.258;2022-09-17T00:09:58;16.80;;;3.97;;
11731;SDS011;5922;53.734;10.258;2022-09-17T00:12:25;20.43;;;4.13;;
11731;SDS011;5922;53.734;10.258;2022-09-17T00:14:53;22.13;;;4.17;;
11731;SDS011;5922;53.734;10.258;2022-09-17T00:17:22;17.77;;;4.30;;
11731;SDS011;5922;53.734;10.258;2022-09-17T00:19:49;19.30;;;4.17;;
11731;SDS011;5922;53.734;10.258;2022-09-17T00:22:16;19.17;;;4.43;;
11731;SDS011;5922;53.734;10.258;2022-09-17T00:24:43;16.03;;;4.27;;
11731;SDS011;5922;53.734;10.258;2022-09-17T00:27:10;14.63;;;3.90;;
11731;SDS011;5922;53.734;10.258;2022-09-17T00:29:38;16.77;;;4.00;;
11731;SDS011;5922;53.734;10.258;2022-09-17T00:32:05;16.57;;;4.10;;
11731;SDS011;5922;53.734;10.258;2022-09-17T00:34:34;21.70;;;4.27;;
11731;SDS011;5922;53.734;10.258;2022-09-17T00:37:01;24.87;;;4.47;;
11731;SDS011;5922;53.734;10.258;2022-09-17T00:39:28;21.83;;;4.40;;
11731;SDS011;5922;53.734;10.258;2022-09-17T00:41:55;22.37;;;4.97;;
11731;SDS011;5922;53.734;10.258;2022-09-17T00:47:19;18.07;;;4.30;;
11731;SDS011;5922;53.734;10.258;2022-09-17T00:52:19;17.70;;;4.27;;
11731;SDS011;5922;53.734;10.258;2022-09-17T00:54:48;17.70;;;3.73;;
11731;SDS011;5922;53.734;10.258;2022-09-17T00:57:17;17.00;;;4.00;;
11731;SDS011;5922;53.734;10.258;2022-09-17T00:59:45;17.67;;;3.97;;
11731;SDS011;5922;53.734;10.258;2022-09-17T01:02:12;16.37;;;3.97;;
11731;SDS011;5922;53.734;10.258;2022-09-17T01:04:39;23.43;;;3.97;;
11731;SDS011;5922;53.734;10.258;2022-09-17T01:07:08;14.17;;;4.03;;
11731;SDS011;5922;53.734;10.258;2022-09-17T01:09:41;22.93;;;4.33;;
11731;SDS011;5922;53.734;10.258;2022-09-17T01:12:14;19.70;;;3.90;;
11731;SDS011;5922;53.734;10.258;2022-09-17T01:14:46;20.80;;;4.23;;
11731;SDS011;5922;53.734;10.258;2022-09-17T01:17:18;13.37;;;3.77;;
11731;SDS011;5922;53.734;10.258;2022-09-17T01:22:39;21.30;;;3.60;;
11731;SDS011;5922;53.734;10.258;2022-09-17T01:25:16;22.47;;;4.10;;
11731;SDS011;5922;53.734;10.258;2022-09-17T01:27:54;21.73;;;4.43;;
11731;SDS011;5922;53.734;10.258;2022-09-17T01:30:36;15.80;;;4.20;;
11731;SDS011;5922;53.734;10.258;2022-09-17T01:33:06;18.17;;;4.57;;
11731;SDS011;5922;53.734;10.258;2022-09-17T01:35:36;16.03;;;3.80;;
11731;SDS011;5922;53.734;10.258;2022-09-17T01:38:08;19.20;;;3.63;;
11731;SDS011;5922;53.734;10.258;2022-09-17T01:40:38;17.30;;;4.33;;
11731;SDS011;5922;53.734;10.258;2022-09-17T01:43:07;14.97;;;4.07;;
11731;SDS011;5922;53.734;10.258;2022-09-17T01:45:38;16.30;;;3.77;;
11731;SDS011;5922;53.734;10.258;2022-09-17T01:48:08;18.53;;;4.20;;
11731;SDS011;5922;53.734;10.258;2022-09-17T01:50:38;14.10;;;4.43;;
11731;SDS011;5922;53.734;10.258;2022-09-17T01:53:06;16.63;;;3.83;;
11731;SDS011;5922;53.734;10.258;2022-09-17T01:55:35;19.50;;;3.93;;
11731;SDS011;5922;53.734;10.258;2022-09-17T01:58:04;13.70;;;3.80;;
11731;SDS011;5922;53.734;10.258;2022-09-17T02:00:34;15.80;;;3.53;;
11731;SDS011;5922;53.734;10.258;2022-09-17T02:03:06;18.13;;;3.73;;
11731;SDS011;5922;53.734;10.258;2022-09-17T02:05:34;15.37;;;4.00;;
11731;SDS011;5922;53.734;10.258;2022-09-17T02:08:05;13.30;;;3.77;;
11731;SDS011;5922;53.734;10.258;2022-09-17T02:10:35;13.60;;;3.60;;
11731;SDS011;5922;53.734;10.258;2022-09-17T02:13:05;16.37;;;4.20;;
11731;SDS011;5922;53.734;10.258;2022-09-17T02:15:35;16.30;;;3.50;;
11731;SDS011;5922;53.734;10.258;2022-09-17T02:18:05;16.17;;;3.67;;
11731;SDS011;5922;53.734;10.258;2022-09-17T02:20:35;17.10;;;3.97;;
11731;SDS011;5922;53.734;10.258;2022-09-17T02:23:05;19.80;;;3.83;;
11731;SDS011;5922;53.734;10.258;2022-09-17T02:25:35;16.07;;;3.70;;
11731;SDS011;5922;53.734;10.258;2022-09-17T02:28:06;19.00;;;4.20;;
11731;SDS011;5922;53.734;10.258;2022-09-17T02:30:34;12.53;;;3.53;;
11731;SDS011;5922;53.734;10.258;2022-09-17T02:33:01;13.50;;;3.57;;
11731;SDS011;5922;53.734;10.258;2022-09-17T02:35:32;20.63;;;4.27;;
11731;SDS011;5922;53.734;10.258;2022-09-17T02:37:59;14.37;;;3.77;;
11731;SDS011;5922;53.734;10.258;2022-09-17T02:40:28;15.77;;;3.57;;
11731;SDS011;5922;53.734;10.258;2022-09-17T02:43:00;21.70;;;3.90;;
11731;SDS011;5922;53.734;10.258;2022-09-17T02:45:36;13.53;;;3.40;;
11731;SDS011;5922;53.734;10.258;2022-09-17T02:48:09;13.30;;;3.50;;
11731;SDS011;5922;53.734;10.258;2022-09-17T02:50:43;12.80;;;3.33;;
11731;SDS011;5922;53.734;10.258;2022-09-17T02:53:20;15.53;;;3.23;;
11731;SDS011;5922;53.734;10.258;2022-09-17T02:55:56;14.90;;;3.30;;
11731;SDS011;5922;53.734;10.258;2022-09-17T02:58:27;14.37;;;3.23;;
11731;SDS011;5922;53.734;10.258;2022-09-17T03:00:56;12.73;;;3.40;;
11731;SDS011;5922;53.734;10.258;2022-09-17T03:03:27;14.67;;;3.03;;
11731;SDS011;5922;53.734;10.258;2022-09-17T03:05:58;16.33;;;3.33;;
11731;SDS011;5922;53.734;10.258;2022-09-17T03:08:27;16.97;;;3.60;;
11731;SDS011;5922;53.734;10.258;2022-09-17T03:10:54;13.13;;;3.20;;
11731;SDS011;5922;53.734;10.258;2022-09-17T03:13:22;10.77;;;2.80;;
11731;SDS011;5922;53.734;10.258;2022-09-17T03:15:49;18.00;;;3.60;;
11731;SDS011;5922;53.734;10.258;2022-09-17T03:18:16;16.40;;;3.13;;
11731;SDS011;5922;53.734;10.258;2022-09-17T03:20:43;17.77;;;3.07;;
11731;SDS011;5922;53.734;10.258;2022-09-17T03:23:12;13.77;;;3.60;;
11731;SDS011;5922;53.734;10.258;2022-09-17T03:25:39;14.03;;;3.00;;
11731;SDS011;5922;53.734;10.258;2022-09-17T03:28:06;11.70;;;2.70;;
11731;SDS011;5922;53.734;10.258;2022-09-17T03:30:34;11.27;;;2.90;;
11731;SDS011;5922;53.734;10.258;2022-09-17T03:33:01;13.57;;;3.47;;
11731;SDS011;5922;53.734;10.258;2022-09-17T03:35:28;13.20;;;3.13;;
11731;SDS011;5922;53.734;10.258;2022-09-17T03:38:07;16.03;;;3.13;;
11731;SDS011;5922;53.734;10.258;2022-09-17T03:40:35;14.40;;;3.57;;
11731;SDS011;5922;53.734;10.258;2022-09-17T03:43:03;12.83;;;3.60;;
11731;SDS011;5922;53.734;10.258;2022-09-17T03:45:30;16.37;;;3.20;;
11731;SDS011;5922;53.734;10.258;2022-09-17T03:47:57;10.87;;;2.53;;
11731;SDS011;5922;53.734;10.258;2022-09-17T03:50:24;12.80;;;2.97;;
11731;SDS011;5922;53.734;10.258;2022-09-17T03:52:51;14.73;;;3.07;;
11731;SDS011;5922;53.734;10.258;2022-09-17T03:55:18;16.13;;;3.40;;
11731;SDS011;5922;53.734;10.258;2022-09-17T03:57:47;13.13;;;3.03;;
11731;SDS011;5922;53.734;10.258;2022-09-17T04:00:15;17.93;;;4.33;;
11731;SDS011;5922;53.734;10.258;2022-09-17T04:02:42;12.03;;;2.90;;
11731;SDS011;5922;53.734;10.258;2022-09-17T04:05:12;14.77;;;2.87;;
11731;SDS011;5922;53.734;10.258;2022-09-17T04:07:40;18.47;;;3.43;;
11731;SDS011;5922;53.734;10.258;2022-09-17T04:10:07;15.43;;;3.17;;
11731;SDS011;5922;53.734;10.258;2022-09-17T04:12:35;15.80;;;3.30;;
11731;SDS011;5922;53.734;10.258;2022-09-17T04:15:04;13.93;;;3.40;;
11731;SDS011;5922;53.734;10.258;2022-09-17T04:17:31;13.10;;;3.30;;
11731;SDS011;5922;53.734;10.258;2022-09-17T04:19:58;16.13;;;3.20;;
11731;SDS011;5922;53.734;10.258;2022-09-17T04:22:26;18.50;;;4.17;;
11731;SDS011;5922;53.734;10.258;2022-09-17T04:24:53;13.40;;;3.47;;
11731;SDS011;5922;53.734;10.258;2022-09-17T04:27:20;12.03;;;3.10;;
11731;SDS011;5922;53.734;10.258;2022-09-17T04:29:48;20.80;;;3.90;;
11731;SDS011;5922;53.734;10.258;2022-09-17T04:32:16;19.33;;;3.43;;
11731;SDS011;5922;53.734;10.258;2022-09-17T04:34:43;17.13;;;3.60;;
11731;SDS011;5922;53.734;10.258;2022-09-17T04:37:11;12.67;;;3.07;;
11731;SDS011;5922;53.734;10.258;2022-09-17T04:39:38;11.57;;;3.10;;
11731;SDS011;5922;53.734;10.258;2022-09-17T04:42:05;13.87;;;3.43;;
11731;SDS011;5922;53.734;10.258;2022-09-17T04:44:33;10.63;;;3.03;;
11731;SDS011;5922;53.734;10.258;2022-09-17T04:47:00;12.50;;;3.10;;
11731;SDS011;5922;53.734;10.258;2022-09-17T04:49:29;16.30;;;3.30;;
11731;SDS011;5922;53.734;10.258;2022-09-17T04:51:56;18.17;;;3.37;;
11731;SDS011;5922;53.734;10.258;2022-09-17T04:54:24;14.40;;;3.20;;
11731;SDS011;5922;53.734;10.258;2022-09-17T04:56:51;15.67;;;3.37;;
11731;SDS011;5922;53.734;10.258;2022-09-17T04:59:18;12.00;;;3.77;;
11731;SDS011;5922;53.734;10.258;2022-09-17T05:01:45;12.27;;;4.23;;
11731;SDS011;5922;53.734;10.258;2022-09-17T05:04:13;16.00;;;4.43;;
11731;SDS011;5922;53.734;10.258;2022-09-17T05:06:42;10.90;;;2.83;;
11731;SDS011;5922;53.734;10.258;2022-09-17T05:09:09;13.60;;;3.00;;
11731;SDS011;5922;53.734;10.258;2022-09-17T05:11:36;14.40;;;3.80;;
11731;SDS011;5922;53.734;10.258;2022-09-17T05:14:04;13.73;;;3.13;;
11731;SDS011;5922;53.734;10.258;2022-09-17T05:16:31;16.03;;;3.50;;
11731;SDS011;5922;53.734;10.258;2022-09-17T05:18:58;11.53;;;3.50;;
11731;SDS011;5922;53.734;10.258;2022-09-17T05:21:25;11.73;;;3.30;;
11731;SDS011;5922;53.734;10.258;2022-09-17T05:23:54;11.07;;;2.90;;
11731;SDS011;5922;53.734;10.258;2022-09-17T05:26:22;13.20;;;3.60;;
11731;SDS011;5922;53.734;10.258;2022-09-17T05:28:49;11.37;;;3.30;;
11731;SDS011;5922;53.734;10.258;2022-09-17T05:31:19;15.30;;;3.13;;
11731;SDS011;5922;53.734;10.258;2022-09-17T05:33:49;18.90;;;3.37;;
11731;SDS011;5922;53.734;10.258;2022-09-17T05:36:16;12.23;;;3.80;;
11731;SDS011;5922;53.734;10.258;2022-09-17T05:38:43;13.80;;;3.20;;
11731;SDS011;5922;53.734;10.258;2022-09-17T05:41:12;13.77;;;3.00;;
11731;SDS011;5922;53.734;10.258;2022-09-17T05:43:41;11.97;;;2.93;;
11731;SDS011;5922;53.734;10.258;2022-09-17T05:46:08;12.57;;;3.40;;
11731;SDS011;5922;53.734;10.258;2022-09-17T05:48:36;11.03;;;3.30;;
11731;SDS011;5922;53.734;10.258;2022-09-17T05:51:03;12.83;;;2.90;;
11731;SDS011;5922;53.734;10.258;2022-09-17T05:53:30;11.43;;;3.70;;
11731;SDS011;5922;53.734;10.258;2022-09-17T05:55:58;16.30;;;3.23;;
11731;SDS011;5922;53.734;10.258;2022-09-17T05:58:26;11.40;;;3.30;;
11731;SDS011;5922;53.734;10.258;2022-09-17T06:00:54;12.40;;;2.83;;
11731;SDS011;5922;53.734;10.258;2022-09-17T06:03:22;15.10;;;3.40;;
11731;SDS011;5922;53.734;10.258;2022-09-17T06:05:52;15.87;;;4.10;;
11731;SDS011;5922;53.734;10.258;2022-09-17T06:08:20;13.03;;;3.17;;
11731;SDS011;5922;53.734;10.258;2022-09-17T06:10:47;10.53;;;2.90;;
11731;SDS011;5922;53.734;10.258;2022-09-17T06:13:15;13.77;;;2.90;;
11731;SDS011;5922;53.734;10.258;2022-09-17T06:15:47;11.67;;;3.27;;
11731;SDS011;5922;53.734;10.258;2022-09-17T06:18:35;14.00;;;3.30;;
11731;SDS011;5922;53.734;10.258;2022-09-17T06:21:02;11.67;;;3.17;;
11731;SDS011;5922;53.734;10.258;2022-09-17T06:23:31;12.53;;;3.10;;
11731;SDS011;5922;53.734;10.258;2022-09-17T06:25:59;11.93;;;2.80;;
11731;SDS011;5922;53.734;10.258;2022-09-17T06:28:30;12.20;;;3.10;;
11731;SDS011;5922;53.734;10.258;2022-09-17T06:31:05;12.37;;;3.13;;
11731;SDS011;5922;53.734;10.258;2022-09-17T06:33:33;13.87;;;3.60;;
11731;SDS011;5922;53.734;10.258;2022-09-17T06:36:01;13.70;;;3.53;;
11731;SDS011;5922;53.734;10.258;2022-09-17T06:38:30;12.23;;;3.27;;
11731;SDS011;5922;53.734;10.258;2022-09-17T06:40:57;10.03;;;3.03;;
11731;SDS011;5922;53.734;10.258;2022-09-17T06:43:25;10.17;;;3.47;;
11731;SDS011;5922;53.734;10.258;2022-09-17T06:45:52;15.07;;;2.80;;
11731;SDS011;5922;53.734;10.258;2022-09-17T06:48:21;14.87;;;2.90;;
11731;SDS011;5922;53.734;10.258;2022-09-17T06:50:49;8.77;;;2.97;;
11731;SDS011;5922;53.734;10.258;2022-09-17T06:53:18;9.67;;;2.90;;
11731;SDS011;5922;53.734;10.258;2022-09-17T06:55:46;12.70;;;3.13;;
11731;SDS011;5922;53.734;10.258;2022-09-17T06:58:13;12.30;;;3.10;;
11731;SDS011;5922;53.734;10.258;2022-09-17T07:00:40;10.47;;;3.27;;
11731;SDS011;5922;53.734;10.258;2022-09-17T07:03:08;12.57;;;2.70;;
11731;SDS011;5922;53.734;10.258;2022-09-17T07:05:36;11.10;;;3.20;;
11731;SDS011;5922;53.734;10.258;2022-09-17T07:08:04;7.70;;;2.27;;
11731;SDS011;5922;53.734;10.258;2022-09-17T07:10:31;7.57;;;2.70;;
11731;SDS011;5922;53.734;10.258;2022-09-17T07:12:58;9.87;;;2.80;;
11731;SDS011;5922;53.734;10.258;2022-09-17T07:15:25;7.70;;;2.27;;
11731;SDS011;5922;53.734;10.258;2022-09-17T07:17:52;7.93;;;2.20;;
11731;SDS011;5922;53.734;10.258;2022-09-17T07:20:20;13.37;;;2.73;;
11731;SDS011;5922;53.734;10.258;2022-09-17T07:28:46;7.03;;;1.70;;
11731;SDS011;5922;53.734;10.258;2022-09-17T07:31:42;9.93;;;2.00;;
11731;SDS011;5922;53.734;10.258;2022-09-17T07:34:25;5.80;;;1.83;;
11731;SDS011;5922;53.734;10.258;2022-09-17T07:37:11;5.57;;;2.13;;
11731;SDS011;5922;53.734;10.258;2022-09-17T07:39:55;4.87;;;1.60;;
11731;SDS011;5922;53.734;10.258;2022-09-17T07:42:41;4.93;;;1.60;;
11731;SDS011;5922;53.734;10.258;2022-09-17T07:45:29;4.90;;;1.73;;
11731;SDS011;5922;53.734;10.258;2022-09-17T07:49:29;5.00;;;1.50;;
11731;SDS011;5922;53.734;10.258;2022-09-17T07:51:38;3.43;;;1.47;;
11731;SDS011;5922;53.734;10.258;2022-09-17T07:54:39;4.80;;;1.30;;
11731;SDS011;5922;53.734;10.258;2022-09-17T07:57:15;5.50;;;1.57;;
11731;SDS011;5922;53.734;10.258;2022-09-17T08:00:16;4.70;;;1.30;;
11731;SDS011;5922;53.734;10.258;2022-09-17T08:08:57;5.87;;;1.50;;
11731;SDS011;5922;53.734;10.258;2022-09-17T08:15:00;4.80;;;1.70;;
11731;SDS011;5922;53.734;10.258;2022-09-17T08:20:51;4.10;;;1.63;;
11731;SDS011;5922;53.734;10.258;2022-09-17T08:23:44;5.60;;;1.77;;
11731;SDS011;5922;53.734;10.258;2022-09-17T08:26:21;4.50;;;1.70;;
11731;SDS011;5922;53.734;10.258;2022-09-17T08:29:08;8.87;;;2.00;;
11731;SDS011;5922;53.734;10.258;2022-09-17T08:31:44;5.47;;;1.70;;
11731;SDS011;5922;53.734;10.258;2022-09-17T08:34:33;4.77;;;1.60;;
11731;SDS011;5922;53.734;10.258;2022-09-17T08:37:17;5.03;;;1.70;;
11731;SDS011;5922;53.734;10.258;2022-09-17T08:40:17;3.83;;;1.90;;
11731;SDS011;5922;53.734;10.258;2022-09-17T08:45:46;7.13;;;2.23;;
11731;SDS011;5922;53.734;10.258;2022-09-17T08:48:30;5.40;;;1.80;;
11731;SDS011;5922;53.734;10.258;2022-09-17T08:51:22;7.57;;;1.70;;
11731;SDS011;5922;53.734;10.258;2022-09-17T08:54:24;4.90;;;1.67;;
11731;SDS011;5922;53.734;10.258;2022-09-17T08:59:46;4.03;;;1.50;;
11731;SDS011;5922;53.734;10.258;2022-09-17T09:02:35;7.33;;;2.30;;
11731;SDS011;5922;53.734;10.258;2022-09-17T09:05:38;6.50;;;1.90;;
11731;SDS011;5922;53.734;10.258;2022-09-17T09:08:23;5.23;;;1.83;;
11731;SDS011;5922;53.734;10.258;2022-09-17T09:10:55;7.93;;;1.80;;
11731;SDS011;5922;53.734;10.258;2022-09-17T09:13:47;6.40;;;1.50;;
11731;SDS011;5922;53.734;10.258;2022-09-17T09:16:26;6.50;;;1.57;;
11731;SDS011;5922;53.734;10.258;2022-09-17T09:18:55;7.07;;;1.80;;
11731;SDS011;5922;53.734;10.258;2022-09-17T09:21:36;4.10;;;1.50;;
11731;SDS011;5922;53.734;10.258;2022-09-17T09:24:24;4.97;;;1.50;;
11731;SDS011;5922;53.734;10.258;2022-09-17T09:27:15;4.70;;;1.63;;
11731;SDS011;5922;53.734;10.258;2022-09-17T09:41:29;8.23;;;1.40;;
11731;SDS011;5922;53.734;10.258;2022-09-17T09:44:08;5.73;;;1.50;;
11731;SDS011;5922;53.734;10.258;2022-09-17T09:49:52;2.90;;;1.30;;
11731;SDS011;5922;53.734;10.258;2022-09-17T09:53:22;5.50;;;1.17;;
11731;SDS011;5922;53.734;10.258;2022-09-17T09:58:21;4.13;;;1.17;;
11731;SDS011;5922;53.734;10.258;2022-09-17T10:00:50;1.77;;;1.20;;
11731;SDS011;5922;53.734;10.258;2022-09-17T10:03:18;2.90;;;0.97;;
11731;SDS011;5922;53.734;10.258;2022-09-17T10:05:52;2.33;;;0.93;;
11731;SDS011;5922;53.734;10.258;2022-09-17T10:08:20;2.67;;;1.07;;
11731;SDS011;5922;53.734;10.258;2022-09-17T10:10:55;2.67;;;1.17;;
11731;SDS011;5922;53.734;10.258;2022-09-17T10:13:24;3.73;;;1.27;;
11731;SDS011;5922;53.734;10.258;2022-09-17T10:15:51;3.87;;;1.17;;
11731;SDS011;5922;53.734;10.258;2022-09-17T10:18:19;3.40;;;1.30;;
11731;SDS011;5922;53.734;10.258;2022-09-17T10:20:51;4.50;;;1.20;;
11731;SDS011;5922;53.734;10.258;2022-09-17T10:23:18;7.10;;;1.40;;
11731;SDS011;5922;53.734;10.258;2022-09-17T10:25:46;4.57;;;1.70;;
11731;SDS011;5922;53.734;10.258;2022-09-17T10:28:28;4.97;;;1.63;;
11731;SDS011;5922;53.734;10.258;2022-09-17T10:30:57;2.30;;;1.20;;
11731;SDS011;5922;53.734;10.258;2022-09-17T10:33:26;4.73;;;1.60;;
11731;SDS011;5922;53.734;10.258;2022-09-17T10:35:58;5.07;;;1.40;;
11731;SDS011;5922;53.734;10.258;2022-09-17T10:38:31;3.17;;;1.33;;
11731;SDS011;5922;53.734;10.258;2022-09-17T10:41:15;4.20;;;1.40;;
11731;SDS011;5922;53.734;10.258;2022-09-17T10:43:44;4.07;;;1.20;;
11731;SDS011;5922;53.734;10.258;2022-09-17T10:46:13;3.47;;;1.20;;
11731;SDS011;5922;53.734;10.258;2022-09-17T10:48:42;3.77;;;1.30;;
11731;SDS011;5922;53.734;10.258;2022-09-17T10:51:10;3.07;;;1.40;;
11731;SDS011;5922;53.734;10.258;2022-09-17T10:53:51;4.67;;;1.53;;
11731;SDS011;5922;53.734;10.258;2022-09-17T10:56:22;3.93;;;1.50;;
11731;SDS011;5922;53.734;10.258;2022-09-17T10:58:55;4.33;;;1.50;;
11731;SDS011;5922;53.734;10.258;2022-09-17T11:01:28;5.00;;;1.37;;
11731;SDS011;5922;53.734;10.258;2022-09-17T11:04:11;3.50;;;1.63;;
11731;SDS011;5922;53.734;10.258;2022-09-17T11:06:49;3.83;;;1.40;;
11731;SDS011;5922;53.734;10.258;2022-09-17T11:09:29;5.60;;;1.50;;
11731;SDS011;5922;53.734;10.258;2022-09-17T11:12:35;6.07;;;1.40;;
11731;SDS011;5922;53.734;10.258;2022-09-17T11:15:24;5.17;;;1.80;;
11731;SDS011;5922;53.734;10.258;2022-09-17T11:17:58;3.73;;;1.47;;
11731;SDS011;5922;53.734;10.258;2022-09-17T11:20:40;5.93;;;1.67;;
11731;SDS011;5922;53.734;10.258;2022-09-17T11:23:25;6.80;;;1.97;;
11731;SDS011;5922;53.734;10.258;2022-09-17T11:25:55;4.80;;;1.70;;
11731;SDS011;5922;53.734;10.258;2022-09-17T11:28:38;2.83;;;1.50;;
11731;SDS011;5922;53.734;10.258;2022-09-17T11:31:11;5.10;;;1.83;;
11731;SDS011;5922;53.734;10.258;2022-09-17T11:33:49;3.53;;;1.83;;
11731;SDS011;5922;53.734;10.258;2022-09-17T11:36:22;6.03;;;2.50;;
11731;SDS011;5922;53.734;10.258;2022-09-17T11:39:22;4.60;;;2.13;;
11731;SDS011;5922;53.734;10.258;2022-09-17T11:42:23;3.77;;;1.57;;
11731;SDS011;5922;53.734;10.258;2022-09-17T11:44:55;3.97;;;1.70;;
11731;SDS011;5922;53.734;10.258;2022-09-17T11:47:48;3.00;;;1.30;;
11731;SDS011;5922;53.734;10.258;2022-09-17T11:50:18;3.87;;;1.30;;
11731;SDS011;5922;53.734;10.258;2022-09-17T11:52:51;6.17;;;1.43;;
11731;SDS011;5922;53.734;10.258;2022-09-17T11:55:22;2.70;;;1.10;;
11731;SDS011;5922;53.734;10.258;2022-09-17T11:57:56;3.17;;;1.30;;
11731;SDS011;5922;53.734;10.258;2022-09-17T12:00:25;4.63;;;1.70;;
11731;SDS011;5922;53.734;10.258;2022-09-17T12:02:58;4.43;;;1.40;;
11731;SDS011;5922;53.734;10.258;2022-09-17T12:05:27;3.37;;;1.47;;
11731;SDS011;5922;53.734;10.258;2022-09-17T12:07:56;4.70;;;1.60;;
11731;SDS011;5922;53.734;10.258;2022-09-17T12:10:30;4.97;;;1.50;;
11731;SDS011;5922;53.734;10.258;2022-09-17T12:13:01;9.00;;;2.00;;
11731;SDS011;5922;53.734;10.258;2022-09-17T12:15:29;3.60;;;1.53;;
11731;SDS011;5922;53.734;10.258;2022-09-17T12:18:14;3.07;;;1.70;;
11731;SDS011;5922;53.734;10.258;2022-09-17T12:20:44;4.03;;;1.40;;
11731;SDS011;5922;53.734;10.258;2022-09-17T12:23:13;2.80;;;1.53;;
11731;SDS011;5922;53.734;10.258;2022-09-17T12:25:42;4.03;;;1.30;;
11731;SDS011;5922;53.734;10.258;2022-09-17T12:28:14;2.83;;;1.47;;
11731;SDS011;5922;53.734;10.258;2022-09-17T12:30:45;3.83;;;1.57;;
11731;SDS011;5922;53.734;10.258;2022-09-17T12:33:20;4.00;;;1.30;;
11731;SDS011;5922;53.734;10.258;2022-09-17T12:38:36;4.17;;;1.67;;
11731;SDS011;5922;53.734;10.258;2022-09-17T12:41:08;6.77;;;2.10;;
11731;SDS011;5922;53.734;10.258;2022-09-17T12:43:47;4.07;;;1.50;;
11731;SDS011;5922;53.734;10.258;2022-09-17T12:46:21;5.93;;;2.23;;
11731;SDS011;5922;53.734;10.258;2022-09-17T12:51:46;6.30;;;2.87;;
11731;SDS011;5922;53.734;10.258;2022-09-17T12:54:19;3.83;;;2.00;;
11731;SDS011;5922;53.734;10.258;2022-09-17T12:56:50;8.30;;;2.40;;
11731;SDS011;5922;53.734;10.258;2022-09-17T12:59:23;5.33;;;2.07;;
11731;SDS011;5922;53.734;10.258;2022-09-17T13:01:53;4.43;;;2.70;;
11731;SDS011;5922;53.734;10.258;2022-09-17T13:04:31;6.93;;;2.50;;
11731;SDS011;5922;53.734;10.258;2022-09-17T13:07:07;7.97;;;2.80;;
11731;SDS011;5922;53.734;10.258;2022-09-17T13:09:43;6.33;;;2.20;;
11731;SDS011;5922;53.734;10.258;2022-09-17T13:12:15;6.70;;;1.77;;
11731;SDS011;5922;53.734;10.258;2022-09-17T13:14:50;5.40;;;1.83;;
11731;SDS011;5922;53.734;10.258;2022-09-17T13:17:23;6.23;;;2.00;;
11731;SDS011;5922;53.734;10.258;2022-09-17T13:19:55;5.53;;;1.93;;
11731;SDS011;5922;53.734;10.258;2022-09-17T13:22:26;4.87;;;2.10;;
11731;SDS011;5922;53.734;10.258;2022-09-17T13:25:01;4.03;;;1.60;;
11731;SDS011;5922;53.734;10.258;2022-09-17T13:27:28;4.43;;;1.53;;
11731;SDS011;5922;53.734;10.258;2022-09-17T13:29:56;6.47;;;1.80;;
11731;SDS011;5922;53.734;10.258;2022-09-17T13:38:11;7.07;;;2.00;;
11731;SDS011;5922;53.734;10.258;2022-09-17T13:40:39;5.90;;;1.90;;
11731;SDS011;5922;53.734;10.258;2022-09-17T13:43:06;5.10;;;1.97;;
11731;SDS011;5922;53.734;10.258;2022-09-17T13:46:03;2.90;;;1.10;;
11731;SDS011;5922;53.734;10.258;2022-09-17T13:48:34;1.87;;;0.97;;
11731;SDS011;5922;53.734;10.258;2022-09-17T13:53:51;6.80;;;1.47;;
11731;SDS011;5922;53.734;10.258;2022-09-17T13:56:27;4.73;;;1.40;;
11731;SDS011;5922;53.734;10.258;2022-09-17T13:58:56;4.33;;;1.53;;
11731;SDS011;5922;53.734;10.258;2022-09-17T14:06:55;5.60;;;1.40;;
11731;SDS011;5922;53.734;10.258;2022-09-17T14:09:32;3.53;;;1.20;;
11731;SDS011;5922;53.734;10.258;2022-09-17T14:11:59;3.10;;;1.60;;
11731;SDS011;5922;53.734;10.258;2022-09-17T14:14:38;4.43;;;1.27;;
11731;SDS011;5922;53.734;10.258;2022-09-17T14:17:06;2.37;;;1.37;;
11731;SDS011;5922;53.734;10.258;2022-09-17T14:19:34;3.63;;;1.33;;
11731;SDS011;5922;53.734;10.258;2022-09-17T14:22:11;3.23;;;1.43;;
11731;SDS011;5922;53.734;10.258;2022-09-17T14:24:45;3.13;;;1.40;;
11731;SDS011;5922;53.734;10.258;2022-09-17T14:27:14;6.20;;;1.93;;
11731;SDS011;5922;53.734;10.258;2022-09-17T14:30:01;4.40;;;1.50;;
11731;SDS011;5922;53.734;10.258;2022-09-17T14:32:30;2.00;;;1.03;;
11731;SDS011;5922;53.734;10.258;2022-09-17T14:34:57;2.67;;;1.00;;
11731;SDS011;5922;53.734;10.258;2022-09-17T14:37:25;2.57;;;1.20;;
11731;SDS011;5922;53.734;10.258;2022-09-17T14:39:54;1.57;;;1.30;;
11731;SDS011;5922;53.734;10.258;2022-09-17T14:42:23;1.20;;;1.10;;
11731;SDS011;5922;53.734;10.258;2022-09-17T14:44:53;3.33;;;1.47;;
11731;SDS011;5922;53.734;10.258;2022-09-17T14:47:22;2.73;;;1.70;;
11731;SDS011;5922;53.734;10.258;2022-09-17T14:49:51;3.87;;;1.40;;
11731;SDS011;5922;53.734;10.258;2022-09-17T14:52:23;2.30;;;1.10;;
11731;SDS011;5922;53.734;10.258;2022-09-17T14:55:13;3.47;;;1.10;;
11731;SDS011;5922;53.734;10.258;2022-09-17T14:57:42;3.13;;;1.10;;
11731;SDS011;5922;53.734;10.258;2022-09-17T15:00:14;1.80;;;0.80;;
11731;SDS011;5922;53.734;10.258;2022-09-17T15:02:42;1.97;;;1.00;;
11731;SDS011;5922;53.734;10.258;2022-09-17T15:05:23;1.47;;;0.90;;
11731;SDS011;5922;53.734;10.258;2022-09-17T15:07:51;2.93;;;0.93;;
11731;SDS011;5922;53.734;10.258;2022-09-17T15:10:33;3.77;;;1.23;;
11731;SDS011;5922;53.734;10.258;2022-09-17T15:13:01;3.50;;;1.47;;
11731;SDS011;5922;53.734;10.258;2022-09-17T15:15:29;1.30;;;0.90;;
11731;SDS011;5922;53.734;10.258;2022-09-17T15:17:56;2.40;;;1.07;;
11731;SDS011;5922;53.734;10.258;2022-09-17T15:20:27;0.90;;;0.70;;
11731;SDS011;5922;53.734;10.258;2022-09-17T15:22:59;3.17;;;1.03;;
11731;SDS011;5922;53.734;10.258;2022-09-17T15:25:29;1.77;;;0.80;;
11731;SDS011;5922;53.734;10.258;2022-09-17T15:27:59;2.80;;;1.33;;
11731;SDS011;5922;53.734;10.258;2022-09-17T15:30:30;1.83;;;1.00;;
11731;SDS011;5922;53.734;10.258;2022-09-17T15:32:57;3.87;;;1.23;;
11731;SDS011;5922;53.734;10.258;2022-09-17T15:35:25;3.17;;;1.00;;
11731;SDS011;5922;53.734;10.258;2022-09-17T15:37:54;4.07;;;1.50;;
11731;SDS011;5922;53.734;10.258;2022-09-17T15:40:23;3.77;;;1.60;;
11731;SDS011;5922;53.734;10.258;2022-09-17T15:42:51;3.00;;;1.30;;
11731;SDS011;5922;53.734;10.258;2022-09-17T15:45:21;2.33;;;1.00;;
11731;SDS011;5922;53.734;10.258;2022-09-17T15:47:52;3.57;;;1.30;;
11731;SDS011;5922;53.734;10.258;2022-09-17T15:50:20;3.33;;;1.40;;
11731;SDS011;5922;53.734;10.258;2022-09-17T15:52:48;1.40;;;0.90;;
11731;SDS011;5922;53.734;10.258;2022-09-17T15:55:26;2.13;;;1.10;;
11731;SDS011;5922;53.734;10.258;2022-09-17T15:57:54;1.80;;;1.23;;
11731;SDS011;5922;53.734;10.258;2022-09-17T16:00:23;2.30;;;1.07;;
11731;SDS011;5922;53.734;10.258;2022-09-17T16:02:50;2.10;;;1.10;;
11731;SDS011;5922;53.734;10.258;2022-09-17T16:08:08;2.50;;;1.13;;
11731;SDS011;5922;53.734;10.258;2022-09-17T16:10:42;2.67;;;1.17;;
11731;SDS011;5922;53.734;10.258;2022-09-17T16:13:09;1.57;;;1.00;;
11731;SDS011;5922;53.734;10.258;2022-09-17T16:15:39;5.40;;;1.13;;
11731;SDS011;5922;53.734;10.258;2022-09-17T16:18:10;2.53;;;1.07;;
11731;SDS011;5922;53.734;10.258;2022-09-17T16:20:38;1.23;;;0.87;;
11731;SDS011;5922;53.734;10.258;2022-09-17T16:23:05;2.20;;;1.10;;